createdAt,value
2022-08-28T00:02:16.244Z,100068.92
2022-08-28T00:04:44.768Z,100074.23
2022-08-28T00:07:13.098Z,100071.96
2022-08-28T00:09:41.873Z,100072.36
2022-08-28T00:12:11.925Z,100070.59
2022-08-28T00:14:40.223Z,100069.27
2022-08-28T00:17:09.827Z,100072.48
2022-08-28T00:19:38.923Z,100067.88
2022-08-28T00:22:07.757Z,100069.15
2022-08-28T00:24:36.349Z,100066.96
2022-08-28T00:27:19.753Z,100062.55
2022-08-28T00:29:48.581Z,100060.92
2022-08-28T00:32:16.976Z,100059.02
2022-08-28T00:34:45.435Z,100059.14
2022-08-28T00:37:14.119Z,100054.99
2022-08-28T00:39:42.469Z,100052.65
2022-08-28T00:42:11.380Z,100053.42
2022-08-28T00:44:40.147Z,100054.55
2022-08-28T00:47:09.610Z,100049.64
2022-08-28T00:49:47.970Z,100048.56
2022-08-28T00:52:18.226Z,100052.09
2022-08-28T00:54:59.210Z,100047.52
2022-08-28T00:57:31.652Z,100054.27
2022-08-28T01:00:00.259Z,100052.78
2022-08-28T01:02:29.011Z,100055.59
2022-08-28T01:04:57.358Z,100050.75
2022-08-28T01:07:25.908Z,100053.56
2022-08-28T01:09:55.622Z,100047.14
2022-08-28T01:12:29.588Z,100042.06
2022-08-28T01:15:01.951Z,100039.54
2022-08-28T01:17:33.936Z,100040.20
2022-08-28T01:20:08.613Z,100037.61
2022-08-28T01:22:39.290Z,100037.23
2022-08-28T01:25:11.740Z,100039.49
2022-08-28T01:27:41.582Z,100040.80
2022-08-28T01:30:13.575Z,100041.56
2022-08-28T01:32:46.854Z,100043.02
2022-08-28T01:35:22.189Z,100042.44
2022-08-28T01:37:51.890Z,100042.70
2022-08-28T01:40:26.300Z,100042.69
2022-08-28T01:42:55.628Z,100045.33
2022-08-28T01:45:25.771Z,100045.90
2022-08-28T01:47:56.069Z,100044.98
2022-08-28T01:50:24.539Z,100042.35
2022-08-28T01:52:52.886Z,100043.73
2022-08-28T01:55:21.857Z,100042.48
2022-08-28T01:57:53.618Z,100043.52
2022-08-28T02:00:26.967Z,100040.23
2022-08-28T02:02:57.642Z,100041.65
2022-08-28T02:05:29.658Z,100042.17
2022-08-28T02:07:59.822Z,100045.02
2022-08-28T02:10:30.295Z,100043.73
2022-08-28T02:12:59.666Z,100047.27
2022-08-28T02:15:30.194Z,100046.17
2022-08-28T02:17:59.468Z,100044.45
2022-08-28T02:20:28.995Z,100045.38
2022-08-28T02:22:57.937Z,100047.95
2022-08-28T02:25:27.705Z,100044.87
2022-08-28T02:27:56.261Z,100044.13
2022-08-28T02:30:25.386Z,100043.42
2022-08-28T02:32:54.740Z,100041.55
2022-08-28T02:35:23.783Z,100040.73
2022-08-28T02:37:55.493Z,100046.65
2022-08-28T02:40:25.904Z,100048.06
2022-08-28T02:42:54.650Z,100042.69
2022-08-28T02:45:23.052Z,100036.80
2022-08-28T02:47:52.949Z,100042.98
2022-08-28T02:50:22.286Z,100042.28
2022-08-28T02:52:51.276Z,100046.40
2022-08-28T02:55:20.811Z,100042.77
2022-08-28T02:57:50.479Z,100043.80
2022-08-28T03:00:23.824Z,100041.42
2022-08-28T03:02:53.081Z,100040.58
2022-08-28T03:05:24.234Z,100041.80
2022-08-28T03:07:53.459Z,100035.98
2022-08-28T03:10:22.968Z,100038.20
2022-08-28T03:12:52.283Z,100032.66
2022-08-28T03:15:21.045Z,100032.92
2022-08-28T03:17:50.393Z,100033.75
2022-08-28T03:20:19.761Z,100032.62
2022-08-28T03:23:07.061Z,100034.48
2022-08-28T03:25:35.981Z,100039.71
2022-08-28T03:28:04.679Z,100040.83
2022-08-28T03:30:33.269Z,100042.61
2022-08-28T03:33:01.662Z,100039.47
2022-08-28T03:35:30.289Z,100039.63
2022-08-28T03:37:58.632Z,100035.20
2022-08-28T03:40:27.262Z,100039.39
2022-08-28T03:42:55.604Z,100043.33
2022-08-28T03:45:24.505Z,100040.99
2022-08-28T03:47:54.509Z,100046.63
2022-08-28T03:50:23.302Z,100047.77
2022-08-28T03:52:53.314Z,100049.46
2022-08-28T03:55:22.391Z,100051.88
2022-08-28T03:57:51.149Z,100055.72
2022-08-28T04:00:20.124Z,100058.90
2022-08-28T04:02:49.966Z,100059.27
2022-08-28T04:05:18.993Z,100062.14
2022-08-28T04:07:47.931Z,100059.75
2022-08-28T04:10:16.781Z,100063.14
2022-08-28T04:12:45.250Z,100068.15
2022-08-28T04:15:15.040Z,100064.46
2022-08-28T04:17:43.522Z,100062.45
2022-08-28T04:20:12.505Z,100060.45
2022-08-28T04:22:40.963Z,100065.70
2022-08-28T04:25:09.948Z,100067.30
2022-08-28T04:27:38.416Z,100070.77
2022-08-28T04:30:09.942Z,100070.92
2022-08-28T04:32:39.788Z,100071.09
2022-08-28T04:35:12.276Z,100072.86
2022-08-28T04:37:43.280Z,100064.27
2022-08-28T04:40:15.315Z,100060.00
2022-08-28T04:42:44.870Z,100063.56
2022-08-28T04:45:13.405Z,100065.24
2022-08-28T04:47:42.824Z,100067.64
2022-08-28T04:50:12.060Z,100065.20
2022-08-28T04:52:42.675Z,100064.44
2022-08-28T04:55:11.427Z,100062.80
2022-08-28T04:57:40.134Z,100062.73
2022-08-28T05:00:11.877Z,100069.77
2022-08-28T05:02:40.270Z,100066.65
2022-08-28T05:05:11.301Z,100070.45
2022-08-28T05:07:39.633Z,100071.25
2022-08-28T05:10:14.326Z,100072.56
2022-08-28T05:12:42.713Z,100072.02
2022-08-28T05:15:13.476Z,100075.09
2022-08-28T05:17:42.029Z,100074.80
2022-08-28T05:20:11.823Z,100074.27
2022-08-28T05:22:40.202Z,100075.98
2022-08-28T05:25:10.312Z,100075.92
2022-08-28T05:27:39.712Z,100080.20
2022-08-28T05:30:11.781Z,100080.15
2022-08-28T05:32:42.933Z,100078.09
2022-08-28T05:35:11.971Z,100075.13
2022-08-28T05:37:40.300Z,100071.60
2022-08-28T05:40:12.535Z,100071.87
2022-08-28T05:42:40.924Z,100073.57
2022-08-28T05:45:11.201Z,100075.27
2022-08-28T05:47:39.564Z,100073.66
2022-08-28T05:50:13.048Z,100080.60
2022-08-28T05:52:42.084Z,100079.50
2022-08-28T05:55:12.934Z,100079.84
2022-08-28T05:57:42.085Z,100079.70
2022-08-28T06:00:13.147Z,100078.10
2022-08-28T06:02:43.889Z,100083.00
2022-08-28T06:05:12.964Z,100085.54
2022-08-28T06:07:42.600Z,100084.27
2022-08-28T06:10:11.238Z,100087.29
2022-08-28T06:12:39.583Z,100087.40
2022-08-28T06:15:10.735Z,100085.35
2022-08-28T06:17:39.806Z,100081.95
2022-08-28T06:20:10.333Z,100083.13
2022-08-28T06:22:38.580Z,100083.05
2022-08-28T06:25:11.740Z,100082.52
2022-08-28T06:27:40.394Z,100083.48
2022-08-28T06:30:11.591Z,100082.27
2022-08-28T06:32:39.989Z,100084.79
2022-08-28T06:35:08.829Z,100085.91
2022-08-28T06:37:39.121Z,100083.04
2022-08-28T06:40:09.567Z,100080.55
2022-08-28T06:42:37.928Z,100075.13
2022-08-28T06:45:08.881Z,100068.77
2022-08-28T06:47:37.184Z,100070.96
2022-08-28T06:50:07.387Z,100070.59
2022-08-28T06:52:35.839Z,100071.57
2022-08-28T06:55:10.033Z,100072.04
2022-08-28T06:57:39.575Z,100068.49
2022-08-28T07:00:11.443Z,100067.55
2022-08-28T07:02:39.922Z,100072.98
2022-08-28T07:05:08.767Z,100071.20
2022-08-28T07:07:37.225Z,100071.69
2022-08-28T07:10:07.684Z,100070.48
2022-08-28T07:12:35.923Z,100070.93
2022-08-28T07:15:06.223Z,100066.17
2022-08-28T07:17:35.409Z,100067.88
2022-08-28T07:20:06.144Z,100066.23
2022-08-28T07:22:34.546Z,100066.34
2022-08-28T07:25:04.116Z,100066.86
2022-08-28T07:27:32.479Z,100066.58
2022-08-28T07:30:01.485Z,100069.98
2022-08-28T07:32:29.851Z,100072.29
2022-08-28T07:34:58.985Z,100074.56
2022-08-28T07:37:27.669Z,100074.72
2022-08-28T07:39:56.019Z,100070.75
2022-08-28T07:42:42.770Z,100068.54
2022-08-28T07:45:11.719Z,100070.78
2022-08-28T07:47:41.572Z,100077.33
2022-08-28T07:50:10.732Z,100074.25
2022-08-28T07:52:39.009Z,100080.95
2022-08-28T07:55:09.175Z,100077.08
2022-08-28T07:57:37.549Z,100075.88
2022-08-28T08:00:12.507Z,100078.08
2022-08-28T08:02:41.566Z,100078.61
2022-08-28T08:05:11.348Z,100080.98
2022-08-28T08:07:43.753Z,100080.40
2022-08-28T08:10:14.488Z,100075.94
2022-08-28T08:12:44.059Z,100075.58
2022-08-28T08:15:13.411Z,100076.31
2022-08-28T08:17:42.784Z,100078.48
2022-08-28T08:20:12.004Z,100080.05
2022-08-28T08:22:40.489Z,100076.27
2022-08-28T08:25:10.162Z,100078.84
2022-08-28T08:27:42.808Z,100075.68
2022-08-28T08:30:14.090Z,100075.49
2022-08-28T08:32:42.433Z,100081.61
2022-08-28T08:35:12.336Z,100081.56
2022-08-28T08:37:40.922Z,100087.88
2022-08-28T08:40:18.566Z,100082.16
2022-08-28T08:42:50.980Z,100081.34
2022-08-28T08:45:25.971Z,100082.86
2022-08-28T08:47:55.933Z,100085.46
2022-08-28T08:50:27.984Z,100084.71
2022-08-28T08:53:25.656Z,100088.66
2022-08-28T08:55:56.490Z,100086.74
2022-08-28T08:58:31.954Z,100091.31
2022-08-28T09:01:08.912Z,100088.77
2022-08-28T09:03:49.647Z,100089.08
2022-08-28T09:06:29.923Z,100089.20
2022-08-28T09:09:01.749Z,100085.98
2022-08-28T09:11:45.453Z,100086.48
2022-08-28T09:14:29.448Z,100089.57
2022-08-28T09:16:59.335Z,100088.38
2022-08-28T09:19:28.237Z,100089.34
2022-08-28T09:21:57.035Z,100088.66
2022-08-28T09:24:28.120Z,100086.27
2022-08-28T09:27:00.382Z,100086.70
2022-08-28T09:29:32.503Z,100087.19
2022-08-28T09:32:21.041Z,100089.31
2022-08-28T09:35:06.708Z,100090.19
2022-08-28T09:37:37.610Z,100085.48
2022-08-28T09:40:22.278Z,100090.04
2022-08-28T09:43:19.883Z,100089.19
2022-08-28T09:45:55.497Z,100087.33
2022-08-28T09:48:30.717Z,100086.56
2022-08-28T09:51:03.224Z,100085.91
2022-08-28T09:53:34.877Z,100086.77
2022-08-28T09:56:17.882Z,100088.55
2022-08-28T09:58:50.669Z,100086.20
2022-08-28T10:01:44.545Z,100087.08
2022-08-28T10:04:38.238Z,100083.34
2022-08-28T10:07:25.264Z,100082.35
2022-08-28T10:10:06.530Z,100077.85
2022-08-28T10:12:45.573Z,100073.60
2022-08-28T10:15:22.017Z,100073.56
2022-08-28T10:18:09.346Z,100072.67
2022-08-28T10:20:48.882Z,100076.77
2022-08-28T10:23:28.159Z,100072.66
2022-08-28T10:26:07.993Z,100066.38
2022-08-28T10:28:50.805Z,100068.35
2022-08-28T10:31:28.144Z,100066.86
2022-08-28T10:34:15.652Z,100067.27
2022-08-28T10:36:48.098Z,100063.48
2022-08-28T10:39:27.162Z,100060.87
2022-08-28T10:42:00.028Z,100060.29
2022-08-28T10:44:38.902Z,100058.38
2022-08-28T10:47:08.796Z,100056.89
2022-08-28T10:49:41.025Z,100055.64
2022-08-28T10:52:12.583Z,100055.58
2022-08-28T10:54:48.708Z,100060.56
2022-08-28T10:57:29.729Z,100058.95
2022-08-28T11:00:00.285Z,100061.16
2022-08-28T11:02:31.837Z,100061.11
2022-08-28T11:05:00.483Z,100058.48
2022-08-28T11:07:33.753Z,100056.65
2022-08-28T11:10:40.634Z,100050.63
2022-08-28T11:13:10.167Z,100057.09
2022-08-28T11:15:53.264Z,100055.85
2022-08-28T11:18:49.911Z,100058.23
2022-08-28T11:21:25.949Z,100054.11
2022-08-28T11:24:01.108Z,100056.60
2022-08-28T11:26:46.241Z,100056.20
2022-08-28T11:29:47.062Z,100053.49
2022-08-28T11:32:39.047Z,100056.35
2022-08-28T11:35:43.817Z,100051.88
2022-08-28T11:38:32.858Z,100050.63
2022-08-28T11:41:12.942Z,100055.08
2022-08-28T11:43:43.676Z,100057.78
2022-08-28T11:46:25.097Z,100055.85
2022-08-28T11:48:56.007Z,100056.05
2022-08-28T11:51:54.171Z,100057.66
2022-08-28T11:54:38.046Z,100054.67
2022-08-28T11:57:14.056Z,100055.77
2022-08-28T12:00:05.561Z,100053.50
2022-08-28T12:02:49.626Z,100056.55
2022-08-28T12:05:41.371Z,100054.61
2022-08-28T12:08:33.794Z,100055.73
2022-08-28T12:11:02.195Z,100056.30
2022-08-28T12:13:50.551Z,100058.31
2022-08-28T12:16:19.282Z,100055.84
2022-08-28T12:19:01.207Z,100052.80
2022-08-28T12:21:36.044Z,100051.33
2022-08-28T12:24:15.947Z,100046.50
2022-08-28T12:26:49.831Z,100049.58
2022-08-28T12:29:29.432Z,100046.08
2022-08-28T12:32:24.098Z,100046.98
2022-08-28T12:35:16.466Z,100048.94
2022-08-28T12:37:52.480Z,100046.00
2022-08-28T12:40:25.399Z,100046.21
2022-08-28T12:42:56.511Z,100043.59
2022-08-28T12:45:31.254Z,100034.80
2022-08-28T12:48:04.461Z,100027.98
2022-08-28T12:50:37.802Z,100024.86
2022-08-28T12:53:12.747Z,100027.36
2022-08-28T12:55:42.718Z,100029.12
2022-08-28T12:58:27.202Z,100021.30
2022-08-28T13:00:59.109Z,100017.98
2022-08-28T13:03:27.903Z,100012.40
2022-08-28T13:06:02.240Z,100009.63
2022-08-28T13:08:31.913Z,100007.71
2022-08-28T13:11:01.193Z,100007.15
2022-08-28T13:13:35.331Z,100008.14
2022-08-28T13:16:08.309Z,100003.34
2022-08-28T13:18:49.913Z,100006.17
2022-08-28T13:21:34.407Z,100004.98
2022-08-28T13:24:27.466Z,100000.10
2022-08-28T13:27:06.798Z,99995.77
2022-08-28T13:29:36.283Z,99994.95
2022-08-28T13:32:08.727Z,99986.90
2022-08-28T13:34:39.027Z,99985.27
2022-08-28T13:37:44.975Z,99983.45
2022-08-28T13:40:38.181Z,99984.77
2022-08-28T13:43:06.532Z,99986.43
2022-08-28T13:45:42.645Z,99984.91
2022-08-28T13:48:13.701Z,99987.66
2022-08-28T13:50:47.184Z,99987.88
2022-08-28T13:53:18.143Z,99983.77
2022-08-28T13:55:48.127Z,99987.40
2022-08-28T13:58:17.833Z,99988.57
2022-08-28T14:00:48.831Z,99990.38
2022-08-28T14:03:38.632Z,99993.07
2022-08-28T14:06:10.979Z,99989.98
2022-08-28T14:08:40.825Z,99988.94
2022-08-28T14:11:12.948Z,99981.39
2022-08-28T14:13:47.312Z,99983.08
2022-08-28T14:16:24.572Z,99983.54
2022-08-28T14:18:53.343Z,99985.34
2022-08-28T14:21:23.768Z,99989.42
2022-08-28T14:23:52.181Z,99988.94
2022-08-28T14:26:20.879Z,99986.89
2022-08-28T14:28:52.107Z,99983.71
2022-08-28T14:31:20.597Z,99980.60
2022-08-28T14:33:56.624Z,99981.21
2022-08-28T14:36:28.137Z,99977.75
2022-08-28T14:39:00.779Z,99980.06
2022-08-28T14:41:31.972Z,99983.75
2022-08-28T14:44:01.275Z,99989.80
2022-08-28T14:46:33.023Z,99988.76
2022-08-28T14:49:04.505Z,99991.32
2022-08-28T14:51:34.497Z,99989.85
2022-08-28T14:54:04.135Z,99993.59
2022-08-28T14:56:32.694Z,99990.86
2022-08-28T14:59:03.217Z,99996.23
2022-08-28T15:01:39.777Z,99992.50
2022-08-28T15:04:12.420Z,99997.48
2022-08-28T15:06:41.952Z,99997.86
2022-08-28T15:09:11.243Z,100001.54
2022-08-28T15:11:40.483Z,100006.33
2022-08-28T15:14:09.164Z,100008.66
2022-08-28T15:16:40.798Z,100010.21
2022-08-28T15:19:11.735Z,100011.37
2022-08-28T15:21:44.079Z,100015.77
2022-08-28T15:24:15.139Z,100021.71
2022-08-28T15:26:44.457Z,100021.55
2022-08-28T15:29:13.130Z,100023.39
2022-08-28T15:31:44.493Z,100020.06
2022-08-28T15:34:16.660Z,100022.44
2022-08-28T15:36:54.742Z,100018.66
2022-08-28T15:39:43.442Z,100016.84
2022-08-28T15:42:11.657Z,100007.42
2022-08-28T15:44:40.382Z,100000.05
2022-08-28T15:47:09.430Z,100005.98
2022-08-28T15:49:48.799Z,100000.33
2022-08-28T15:52:19.558Z,100006.14
2022-08-28T15:54:49.047Z,100009.90
2022-08-28T15:57:18.197Z,100009.73
2022-08-28T15:59:50.023Z,100008.30
2022-08-28T16:02:23.850Z,100004.95
2022-08-28T16:04:53.642Z,100006.94
2022-08-28T16:07:23.268Z,100010.20
2022-08-28T16:09:52.206Z,100009.56
2022-08-28T16:12:20.537Z,100011.41
2022-08-28T16:14:49.781Z,100013.39
2022-08-28T16:17:20.039Z,100015.31
2022-08-28T16:19:48.641Z,100014.92
2022-08-28T16:22:17.952Z,100022.08
2022-08-28T16:24:46.798Z,100024.60
2022-08-28T16:27:15.970Z,100026.30
2022-08-28T16:29:45.418Z,100028.85
2022-08-28T16:32:13.852Z,100026.95
2022-08-28T16:34:44.767Z,100024.48
2022-08-28T16:37:15.821Z,100028.75
2022-08-28T16:39:54.402Z,100027.42
2022-08-28T16:42:23.396Z,100024.59
2022-08-28T16:44:56.649Z,100019.57
2022-08-28T16:47:26.217Z,100022.96
2022-08-28T16:49:57.194Z,100023.16
2022-08-28T16:52:25.714Z,100029.23
2022-08-28T16:54:54.491Z,100032.20
2022-08-28T16:57:23.398Z,100038.63
2022-08-28T16:59:52.920Z,100042.85
2022-08-28T17:02:24.582Z,100048.02
2022-08-28T17:04:59.795Z,100046.30
2022-08-28T17:07:28.551Z,100047.52
2022-08-28T17:09:56.923Z,100054.20
2022-08-28T17:12:25.214Z,100067.66
2022-08-28T17:14:55.869Z,100085.06
2022-08-28T17:17:24.460Z,100099.77
2022-08-28T17:19:54.238Z,100106.31
2022-08-28T17:22:31.671Z,100111.93
2022-08-28T17:25:01.008Z,100118.74
2022-08-28T17:27:31.514Z,100122.30
2022-08-28T17:30:02.624Z,100136.67
2022-08-28T17:32:31.736Z,100141.08
2022-08-28T17:35:00.466Z,100147.38
2022-08-28T17:37:29.477Z,100152.63
2022-08-28T17:39:57.820Z,100154.92
2022-08-28T17:42:26.621Z,100161.05
2022-08-28T17:44:55.546Z,100158.98
2022-08-28T17:47:26.300Z,100151.74
2022-08-28T17:50:00.257Z,100159.40
2022-08-28T17:52:29.532Z,100164.66
2022-08-28T17:54:58.476Z,100167.35
2022-08-28T17:57:29.968Z,100171.27
2022-08-28T17:59:59.618Z,100171.66
2022-08-28T18:02:28.834Z,100171.36
2022-08-28T18:04:57.440Z,100161.63
2022-08-28T18:07:25.782Z,100156.20
2022-08-28T18:09:54.844Z,100156.24
2022-08-28T18:12:23.661Z,100159.39
2022-08-28T18:14:52.616Z,100162.45
2022-08-28T18:17:21.123Z,100164.52
2022-08-28T18:19:49.624Z,100163.68
2022-08-28T18:22:18.195Z,100162.88
2022-08-28T18:24:52.345Z,100159.38
2022-08-28T18:27:21.565Z,100151.50
2022-08-28T18:29:51.477Z,100152.14
2022-08-28T18:32:20.994Z,100152.41
2022-08-28T18:34:49.708Z,100153.51
2022-08-28T18:37:18.171Z,100150.88
2022-08-28T18:39:46.483Z,100142.82
2022-08-28T18:42:15.229Z,100143.70
2022-08-28T18:44:43.876Z,100146.67
2022-08-28T18:47:13.026Z,100150.65
2022-08-28T18:49:42.589Z,100157.42
2022-08-28T18:52:11.938Z,100158.47
2022-08-28T18:54:40.476Z,100155.63
2022-08-28T18:57:10.795Z,100158.86
2022-08-28T18:59:40.310Z,100156.10
2022-08-28T19:02:08.946Z,100155.70
2022-08-28T19:04:38.565Z,100152.96
2022-08-28T19:07:07.242Z,100155.20
2022-08-28T19:09:36.214Z,100155.20
2022-08-28T19:12:05.580Z,100149.99
2022-08-28T19:14:34.477Z,100146.20
2022-08-28T19:17:03.424Z,100148.40
2022-08-28T19:19:33.240Z,100144.64
2022-08-28T19:22:02.645Z,100147.80
2022-08-28T19:24:33.166Z,100148.66
2022-08-28T19:27:02.987Z,100150.06
2022-08-28T19:29:31.954Z,100151.09
2022-08-28T19:32:00.815Z,100151.84
2022-08-28T19:34:29.415Z,100151.08
2022-08-28T19:36:59.136Z,100154.71
2022-08-28T19:39:27.641Z,100154.51
2022-08-28T19:41:56.296Z,100155.04
2022-08-28T19:44:24.912Z,100154.98
2022-08-28T19:46:53.212Z,100152.39
2022-08-28T19:49:22.063Z,100151.23
2022-08-28T19:51:50.608Z,100152.33
2022-08-28T19:54:18.946Z,100146.11
2022-08-28T19:56:47.467Z,100148.41
2022-08-28T19:59:15.958Z,100145.75
2022-08-28T20:01:45.941Z,100146.94
2022-08-28T20:04:17.062Z,100147.11
2022-08-28T20:06:46.030Z,100146.78
2022-08-28T20:09:16.796Z,100136.85
2022-08-28T20:11:46.451Z,100135.07
2022-08-28T20:14:16.674Z,100131.79
2022-08-28T20:16:47.750Z,100130.75
2022-08-28T20:19:18.155Z,100131.89
2022-08-28T20:21:49.204Z,100133.46
2022-08-28T20:24:21.587Z,100133.33
2022-08-28T20:26:51.246Z,100134.85
2022-08-28T20:29:19.808Z,100132.19
2022-08-28T20:31:48.462Z,100131.56
2022-08-28T20:34:18.882Z,100128.65
2022-08-28T20:36:48.107Z,100126.98
2022-08-28T20:39:17.987Z,100123.84
2022-08-28T20:41:46.445Z,100123.27
2022-08-28T20:44:18.222Z,100126.95
2022-08-28T20:46:51.603Z,100124.55
2022-08-28T20:49:23.231Z,100123.99
2022-08-28T20:51:52.667Z,100118.60
2022-08-28T20:54:23.685Z,100112.17
2022-08-28T20:56:52.237Z,100111.98
2022-08-28T20:59:21.770Z,100113.06
2022-08-28T21:01:50.921Z,100116.29
2022-08-28T21:04:19.811Z,100117.02
2022-08-28T21:06:48.309Z,100120.09
2022-08-28T21:09:17.631Z,100119.84
2022-08-28T21:11:46.476Z,100120.33
2022-08-28T21:14:15.228Z,100116.93
2022-08-28T21:16:43.650Z,100114.65
2022-08-28T21:19:15.668Z,100121.23
2022-08-28T21:21:45.077Z,100125.92
2022-08-28T21:24:14.792Z,100134.84
2022-08-28T21:26:44.537Z,100137.50
2022-08-28T21:29:14.053Z,100142.35
2022-08-28T21:31:44.507Z,100141.16
2022-08-28T21:34:13.366Z,100141.55
2022-08-28T21:36:49.548Z,100148.21
2022-08-28T21:39:20.226Z,100151.35
2022-08-28T21:41:49.385Z,100160.68
2022-08-28T21:44:18.009Z,100165.54
2022-08-28T21:46:46.513Z,100164.61
2022-08-28T21:49:15.006Z,100166.52
2022-08-28T21:51:43.415Z,100173.02
2022-08-28T21:54:11.719Z,100181.17
2022-08-28T21:56:40.239Z,100187.48
2022-08-28T21:59:08.577Z,100189.27
2022-08-28T22:01:37.023Z,100193.98
2022-08-28T22:04:05.731Z,100192.63
2022-08-28T22:06:34.206Z,100195.27
2022-08-28T22:09:03.100Z,100193.40
2022-08-28T22:11:32.222Z,100188.16
2022-08-28T22:14:01.049Z,100189.04
2022-08-28T22:16:29.665Z,100190.05
2022-08-28T22:18:59.821Z,100187.35
2022-08-28T22:21:46.404Z,100191.81
2022-08-28T22:24:14.897Z,100190.73
2022-08-28T22:26:43.902Z,100192.02
2022-08-28T22:29:12.725Z,100187.19
2022-08-28T22:31:45.546Z,100193.65
2022-08-28T22:34:14.662Z,100193.41
2022-08-28T22:36:43.371Z,100197.17
2022-08-28T22:39:11.697Z,100196.96
2022-08-28T22:41:40.122Z,100198.48
2022-08-28T22:44:08.596Z,100193.55
2022-08-28T22:46:36.908Z,100200.27
2022-08-28T22:49:05.244Z,100198.13
2022-08-28T22:51:35.035Z,100195.36
2022-08-28T22:54:05.715Z,100192.08
2022-08-28T22:56:35.688Z,100192.79
2022-08-28T22:59:04.285Z,100190.23
2022-08-28T23:01:32.598Z,100196.75
2022-08-28T23:04:02.287Z,100192.70
2022-08-28T23:06:31.344Z,100200.84
2022-08-28T23:08:59.651Z,100212.07
2022-08-28T23:11:28.710Z,100222.93
2022-08-28T23:13:58.231Z,100227.13
2022-08-28T23:16:26.562Z,100227.23
2022-08-28T23:19:08.632Z,100225.73
2022-08-28T23:21:39.366Z,100222.92
2022-08-28T23:24:13.967Z,100208.86
2022-08-28T23:26:43.286Z,100199.75
2022-08-28T23:29:12.905Z,100195.14
2022-08-28T23:31:41.596Z,100189.91
2022-08-28T23:34:10.251Z,100187.33
2022-08-28T23:36:42.953Z,100186.10
2022-08-28T23:39:11.945Z,100182.94
2022-08-28T23:41:40.728Z,100186.05
2022-08-28T23:44:09.932Z,100184.36
2022-08-28T23:46:41.414Z,100183.55
2022-08-28T23:49:10.890Z,100183.02
2022-08-28T23:51:39.836Z,100173.70
2022-08-28T23:54:09.649Z,100176.83
2022-08-28T23:56:38.399Z,100180.95
2022-08-28T23:59:07.243Z,100180.92
